sensor_id;sensor_type;location;lat;lon;timestamp;pressure;altitude;pressure_sealevel;temperature;humidity
64967;BME280;51710;38.732;-121.358;2023-05-25T00:02:10;100418.66;;;26.18;39.98
64967;BME280;51710;38.732;-121.358;2023-05-25T00:04:40;100409.38;;;26.19;40.22
64967;BME280;51710;38.732;-121.358;2023-05-25T00:07:06;100408.25;;;26.15;39.93
64967;BME280;51710;38.732;-121.358;2023-05-25T00:09:34;100405.72;;;25.99;40.68
64967;BME280;51710;38.732;-121.358;2023-05-25T00:12:00;100414.66;;;25.89;40.71
64967;BME280;51710;38.732;-121.358;2023-05-25T00:14:27;100422.03;;;25.89;40.82
64967;BME280;51710;38.732;-121.358;2023-05-25T00:16:55;100405.16;;;25.97;40.80
64967;BME280;51710;38.732;-121.358;2023-05-25T00:19:21;100401.41;;;26.08;40.80
64967;BME280;51710;38.732;-121.358;2023-05-25T00:21:48;100395.44;;;26.16;40.72
64967;BME280;51710;38.732;-121.358;2023-05-25T00:24:14;100399.03;;;26.26;40.47
64967;BME280;51710;38.732;-121.358;2023-05-25T00:26:40;100402.59;;;26.27;40.58
64967;BME280;51710;38.732;-121.358;2023-05-25T00:29:07;100396.28;;;26.26;40.36
64967;BME280;51710;38.732;-121.358;2023-05-25T00:31:33;100400.63;;;26.22;40.33
64967;BME280;51710;38.732;-121.358;2023-05-25T00:34:01;100395.16;;;26.17;40.46
64967;BME280;51710;38.732;-121.358;2023-05-25T00:36:27;100395.69;;;26.14;40.44
64967;BME280;51710;38.732;-121.358;2023-05-25T00:38:53;100394.59;;;26.10;41.14
64967;BME280;51710;38.732;-121.358;2023-05-25T00:41:20;100392.41;;;26.07;40.73
64967;BME280;51710;38.732;-121.358;2023-05-25T00:43:47;100393.22;;;26.03;40.84
64967;BME280;51710;38.732;-121.358;2023-05-25T00:46:14;100389.59;;;25.97;41.06
64967;BME280;51710;38.732;-121.358;2023-05-25T00:48:41;100382.72;;;25.90;41.08
64967;BME280;51710;38.732;-121.358;2023-05-25T00:51:09;100381.59;;;25.86;41.13
64967;BME280;51710;38.732;-121.358;2023-05-25T00:53:36;100390.06;;;25.84;41.39
64967;BME280;51710;38.732;-121.358;2023-05-25T00:56:23;100393.06;;;25.83;41.43
64967;BME280;51710;38.732;-121.358;2023-05-25T00:58:53;100383.50;;;25.80;41.26
64967;BME280;51710;38.732;-121.358;2023-05-25T01:01:21;100390.25;;;25.68;41.30
64967;BME280;51710;38.732;-121.358;2023-05-25T01:03:50;100386.34;;;25.53;41.45
64967;BME280;51710;38.732;-121.358;2023-05-25T01:06:21;100384.09;;;25.45;41.83
64967;BME280;51710;38.732;-121.358;2023-05-25T01:08:57;100384.38;;;25.44;41.76
64967;BME280;51710;38.732;-121.358;2023-05-25T01:11:30;100376.94;;;25.76;41.55
64967;BME280;51710;38.732;-121.358;2023-05-25T01:13:57;100375.94;;;25.92;41.02
64967;BME280;51710;38.732;-121.358;2023-05-25T01:16:24;100373.69;;;25.84;41.27
64967;BME280;51710;38.732;-121.358;2023-05-25T01:18:53;100363.81;;;25.68;41.63
64967;BME280;51710;38.732;-121.358;2023-05-25T01:24:12;100362.63;;;25.54;41.95
64967;BME280;51710;38.732;-121.358;2023-05-25T01:26:54;100353.00;;;25.41;41.75
64967;BME280;51710;38.732;-121.358;2023-05-25T01:29:23;100359.13;;;25.27;42.34
64967;BME280;51710;38.732;-121.358;2023-05-25T01:31:52;100362.31;;;25.14;42.00
64967;BME280;51710;38.732;-121.358;2023-05-25T01:34:20;100354.31;;;25.02;42.25
64967;BME280;51710;38.732;-121.358;2023-05-25T01:36:46;100359.47;;;24.99;42.71
64967;BME280;51710;38.732;-121.358;2023-05-25T01:39:12;100364.31;;;24.92;42.36
64967;BME280;51710;38.732;-121.358;2023-05-25T01:41:39;100352.53;;;24.86;42.33
64967;BME280;51710;38.732;-121.358;2023-05-25T01:44:05;100352.00;;;24.84;42.64
64967;BME280;51710;38.732;-121.358;2023-05-25T01:46:37;100352.47;;;24.76;42.37
64967;BME280;51710;38.732;-121.358;2023-05-25T01:52:17;100355.28;;;24.60;42.79
64967;BME280;51710;38.732;-121.358;2023-05-25T01:54:50;100347.59;;;24.57;42.74
64967;BME280;51710;38.732;-121.358;2023-05-25T01:57:18;100355.19;;;24.49;42.96
64967;BME280;51710;38.732;-121.358;2023-05-25T01:59:46;100356.81;;;24.50;43.12
64967;BME280;51710;38.732;-121.358;2023-05-25T02:02:17;100366.69;;;24.83;43.25
64967;BME280;51710;38.732;-121.358;2023-05-25T02:04:43;100360.88;;;25.38;42.14
64967;BME280;51710;38.732;-121.358;2023-05-25T02:07:10;100367.72;;;25.40;41.84
64967;BME280;51710;38.732;-121.358;2023-05-25T02:09:37;100370.06;;;25.32;41.60
64967;BME280;51710;38.732;-121.358;2023-05-25T02:12:04;100369.41;;;25.15;41.98
64967;BME280;51710;38.732;-121.358;2023-05-25T02:14:31;100377.22;;;25.01;41.79
64967;BME280;51710;38.732;-121.358;2023-05-25T02:16:57;100374.63;;;24.90;41.90
64967;BME280;51710;38.732;-121.358;2023-05-25T02:19:26;100368.94;;;24.65;42.15
64967;BME280;51710;38.732;-121.358;2023-05-25T02:21:53;100376.34;;;24.42;42.29
64967;BME280;51710;38.732;-121.358;2023-05-25T02:24:21;100377.31;;;24.31;42.77
64967;BME280;51710;38.732;-121.358;2023-05-25T02:26:49;100381.25;;;24.19;42.53
64967;BME280;51710;38.732;-121.358;2023-05-25T02:29:16;100381.44;;;24.12;42.71
64967;BME280;51710;38.732;-121.358;2023-05-25T02:31:43;100380.56;;;24.07;42.70
64967;BME280;51710;38.732;-121.358;2023-05-25T02:34:09;100385.59;;;23.98;42.65
64967;BME280;51710;38.732;-121.358;2023-05-25T02:36:36;100386.59;;;23.92;43.08
64967;BME280;51710;38.732;-121.358;2023-05-25T02:39:04;100384.88;;;23.86;43.19
64967;BME280;51710;38.732;-121.358;2023-05-25T02:41:30;100387.03;;;23.84;43.33
64967;BME280;51710;38.732;-121.358;2023-05-25T02:43:56;100391.25;;;23.75;43.50
64967;BME280;51710;38.732;-121.358;2023-05-25T02:46:23;100391.94;;;23.66;43.55
64967;BME280;51710;38.732;-121.358;2023-05-25T02:48:50;100392.28;;;23.53;43.97
64967;BME280;51710;38.732;-121.358;2023-05-25T02:51:16;100398.91;;;23.40;44.35
64967;BME280;51710;38.732;-121.358;2023-05-25T02:53:42;100400.88;;;23.28;44.78
64967;BME280;51710;38.732;-121.358;2023-05-25T02:56:09;100397.41;;;23.16;45.21
64967;BME280;51710;38.732;-121.358;2023-05-25T02:58:36;100409.41;;;23.03;45.70
64967;BME280;51710;38.732;-121.358;2023-05-25T03:01:03;100411.38;;;22.91;46.02
64967;BME280;51710;38.732;-121.358;2023-05-25T03:03:30;100410.03;;;22.77;46.70
64967;BME280;51710;38.732;-121.358;2023-05-25T03:05:56;100419.53;;;22.63;46.91
64967;BME280;51710;38.732;-121.358;2023-05-25T03:08:23;100421.59;;;22.56;46.92
64967;BME280;51710;38.732;-121.358;2023-05-25T03:10:49;100423.59;;;22.49;47.07
64967;BME280;51710;38.732;-121.358;2023-05-25T03:13:15;100424.56;;;22.43;47.09
64967;BME280;51710;38.732;-121.358;2023-05-25T03:15:44;100424.84;;;22.30;46.90
64967;BME280;51710;38.732;-121.358;2023-05-25T03:18:10;100423.81;;;22.19;47.31
64967;BME280;51710;38.732;-121.358;2023-05-25T03:20:37;100427.88;;;22.05;47.56
64967;BME280;51710;38.732;-121.358;2023-05-25T03:23:03;100428.22;;;21.97;48.14
64967;BME280;51710;38.732;-121.358;2023-05-25T03:25:29;100425.78;;;21.84;48.73
64967;BME280;51710;38.732;-121.358;2023-05-25T03:27:56;100424.34;;;21.70;49.15
64967;BME280;51710;38.732;-121.358;2023-05-25T03:30:22;100434.13;;;21.60;49.37
64967;BME280;51710;38.732;-121.358;2023-05-25T03:32:48;100433.19;;;21.54;49.53
64967;BME280;51710;38.732;-121.358;2023-05-25T03:35:15;100439.78;;;21.47;50.15
64967;BME280;51710;38.732;-121.358;2023-05-25T03:37:41;100435.28;;;21.29;50.17
64967;BME280;51710;38.732;-121.358;2023-05-25T03:40:08;100438.22;;;21.16;50.64
64967;BME280;51710;38.732;-121.358;2023-05-25T03:42:36;100443.38;;;21.06;50.98
64967;BME280;51710;38.732;-121.358;2023-05-25T03:45:02;100436.78;;;21.02;51.07
64967;BME280;51710;38.732;-121.358;2023-05-25T03:47:29;100435.53;;;20.98;51.47
64967;BME280;51710;38.732;-121.358;2023-05-25T03:49:56;100437.53;;;20.91;51.56
64967;BME280;51710;38.732;-121.358;2023-05-25T03:52:22;100436.94;;;20.89;51.85
64967;BME280;51710;38.732;-121.358;2023-05-25T03:54:48;100437.41;;;20.86;51.84
64967;BME280;51710;38.732;-121.358;2023-05-25T03:57:14;100440.34;;;20.84;52.17
64967;BME280;51710;38.732;-121.358;2023-05-25T03:59:40;100446.09;;;20.76;52.15
64967;BME280;51710;38.732;-121.358;2023-05-25T04:02:07;100444.91;;;20.72;52.14
64967;BME280;51710;38.732;-121.358;2023-05-25T04:04:33;100458.06;;;20.69;52.46
64967;BME280;51710;38.732;-121.358;2023-05-25T04:06:59;100443.78;;;20.62;52.57
64967;BME280;51710;38.732;-121.358;2023-05-25T04:09:26;100448.41;;;20.43;52.90
64967;BME280;51710;38.732;-121.358;2023-05-25T04:11:52;100455.41;;;20.33;52.95
64967;BME280;51710;38.732;-121.358;2023-05-25T04:14:18;100460.22;;;20.31;53.27
64967;BME280;51710;38.732;-121.358;2023-05-25T04:16:46;100462.09;;;20.30;53.13
64967;BME280;51710;38.732;-121.358;2023-05-25T04:19:12;100464.19;;;20.28;53.48
64967;BME280;51710;38.732;-121.358;2023-05-25T04:21:38;100459.03;;;20.27;53.35
64967;BME280;51710;38.732;-121.358;2023-05-25T04:24:05;100460.31;;;20.24;53.36
64967;BME280;51710;38.732;-121.358;2023-05-25T04:26:32;100464.13;;;20.17;53.47
64967;BME280;51710;38.732;-121.358;2023-05-25T04:28:58;100465.59;;;20.12;53.67
64967;BME280;51710;38.732;-121.358;2023-05-25T04:31:26;100471.31;;;20.04;53.72
64967;BME280;51710;38.732;-121.358;2023-05-25T04:33:53;100466.19;;;19.96;53.91
64967;BME280;51710;38.732;-121.358;2023-05-25T04:36:21;100481.06;;;19.87;54.05
64967;BME280;51710;38.732;-121.358;2023-05-25T04:38:48;100473.63;;;19.83;54.13
64967;BME280;51710;38.732;-121.358;2023-05-25T04:41:17;100478.25;;;19.76;54.20
64967;BME280;51710;38.732;-121.358;2023-05-25T04:43:43;100476.66;;;19.68;54.39
64967;BME280;51710;38.732;-121.358;2023-05-25T04:46:12;100481.75;;;19.58;54.83
64967;BME280;51710;38.732;-121.358;2023-05-25T04:48:41;100488.06;;;19.52;54.66
64967;BME280;51710;38.732;-121.358;2023-05-25T04:51:08;100490.78;;;19.46;54.87
64967;BME280;51710;38.732;-121.358;2023-05-25T04:53:34;100491.06;;;19.38;55.07
64967;BME280;51710;38.732;-121.358;2023-05-25T04:56:00;100492.56;;;19.27;55.50
64967;BME280;51710;38.732;-121.358;2023-05-25T04:58:27;100498.25;;;19.19;55.54
64967;BME280;51710;38.732;-121.358;2023-05-25T05:00:55;100498.66;;;19.16;55.72
64967;BME280;51710;38.732;-121.358;2023-05-25T05:03:21;100499.13;;;19.13;55.74
64967;BME280;51710;38.732;-121.358;2023-05-25T05:05:49;100503.91;;;19.11;55.85
64967;BME280;51710;38.732;-121.358;2023-05-25T05:08:15;100492.94;;;19.06;56.05
64967;BME280;51710;38.732;-121.358;2023-05-25T05:10:41;100500.41;;;19.04;55.94
64967;BME280;51710;38.732;-121.358;2023-05-25T05:13:08;100494.22;;;18.97;56.24
64967;BME280;51710;38.732;-121.358;2023-05-25T05:15:35;100501.75;;;18.88;56.37
64967;BME280;51710;38.732;-121.358;2023-05-25T05:18:02;100505.56;;;18.81;56.47
64967;BME280;51710;38.732;-121.358;2023-05-25T05:20:28;100509.94;;;18.75;56.75
64967;BME280;51710;38.732;-121.358;2023-05-25T05:22:54;100501.25;;;18.67;56.86
64967;BME280;51710;38.732;-121.358;2023-05-25T05:25:21;100513.53;;;18.63;56.96
64967;BME280;51710;38.732;-121.358;2023-05-25T05:27:47;100516.47;;;18.55;57.10
64967;BME280;51710;38.732;-121.358;2023-05-25T05:30:13;100522.28;;;18.52;57.26
64967;BME280;51710;38.732;-121.358;2023-05-25T05:32:40;100523.94;;;18.40;57.45
64967;BME280;51710;38.732;-121.358;2023-05-25T05:35:06;100522.91;;;18.34;57.57
64967;BME280;51710;38.732;-121.358;2023-05-25T05:37:32;100519.84;;;18.24;57.73
64967;BME280;51710;38.732;-121.358;2023-05-25T05:39:58;100522.56;;;18.18;58.07
64967;BME280;51710;38.732;-121.358;2023-05-25T05:42:25;100522.81;;;18.10;58.06
64967;BME280;51710;38.732;-121.358;2023-05-25T05:44:51;100527.78;;;18.06;58.30
64967;BME280;51710;38.732;-121.358;2023-05-25T05:47:17;100535.44;;;18.09;58.39
64967;BME280;51710;38.732;-121.358;2023-05-25T05:49:43;100535.44;;;18.09;58.42
64967;BME280;51710;38.732;-121.358;2023-05-25T05:52:10;100540.22;;;18.07;58.49
64967;BME280;51710;38.732;-121.358;2023-05-25T05:54:36;100530.66;;;18.05;58.49
64967;BME280;51710;38.732;-121.358;2023-05-25T05:57:02;100539.59;;;17.98;58.62
64967;BME280;51710;38.732;-121.358;2023-05-25T05:59:29;100534.25;;;17.92;58.79
64967;BME280;51710;38.732;-121.358;2023-05-25T06:01:55;100529.88;;;17.84;58.90
64967;BME280;51710;38.732;-121.358;2023-05-25T06:04:21;100521.59;;;17.79;59.10
64967;BME280;51710;38.732;-121.358;2023-05-25T06:06:50;100522.44;;;17.80;59.05
64967;BME280;51710;38.732;-121.358;2023-05-25T06:09:16;100525.31;;;17.78;59.30
64967;BME280;51710;38.732;-121.358;2023-05-25T06:11:43;100522.41;;;17.73;59.24
64967;BME280;51710;38.732;-121.358;2023-05-25T06:14:09;100527.81;;;17.73;59.35
64967;BME280;51710;38.732;-121.358;2023-05-25T06:16:36;100528.66;;;17.74;59.37
64967;BME280;51710;38.732;-121.358;2023-05-25T06:19:02;100531.97;;;17.69;59.61
64967;BME280;51710;38.732;-121.358;2023-05-25T06:21:28;100527.41;;;17.63;59.36
64967;BME280;51710;38.732;-121.358;2023-05-25T06:23:55;100529.91;;;17.58;59.60
64967;BME280;51710;38.732;-121.358;2023-05-25T06:26:24;100525.75;;;17.49;59.84
64967;BME280;51710;38.732;-121.358;2023-05-25T06:28:50;100526.75;;;17.42;60.01
64967;BME280;51710;38.732;-121.358;2023-05-25T06:31:17;100517.84;;;17.41;60.20
64967;BME280;51710;38.732;-121.358;2023-05-25T06:33:43;100528.19;;;17.38;60.18
64967;BME280;51710;38.732;-121.358;2023-05-25T06:36:09;100534.81;;;17.35;60.15
64967;BME280;51710;38.732;-121.358;2023-05-25T06:38:36;100528.81;;;17.33;60.29
64967;BME280;51710;38.732;-121.358;2023-05-25T06:41:02;100528.59;;;17.28;60.39
64967;BME280;51710;38.732;-121.358;2023-05-25T06:43:30;100532.75;;;17.24;60.72
64967;BME280;51710;38.732;-121.358;2023-05-25T06:45:57;100539.16;;;17.23;60.98
64967;BME280;51710;38.732;-121.358;2023-05-25T06:48:23;100542.25;;;17.20;60.80
64967;BME280;51710;38.732;-121.358;2023-05-25T06:50:49;100552.38;;;17.12;60.97
64967;BME280;51710;38.732;-121.358;2023-05-25T06:53:16;100548.22;;;17.09;61.00
64967;BME280;51710;38.732;-121.358;2023-05-25T06:55:42;100554.22;;;17.05;61.24
64967;BME280;51710;38.732;-121.358;2023-05-25T06:58:09;100553.81;;;17.01;61.45
64967;BME280;51710;38.732;-121.358;2023-05-25T07:00:36;100558.16;;;17.02;61.36
64967;BME280;51710;38.732;-121.358;2023-05-25T07:03:02;100562.91;;;17.00;61.07
64967;BME280;51710;38.732;-121.358;2023-05-25T07:05:28;100557.09;;;16.97;61.35
64967;BME280;51710;38.732;-121.358;2023-05-25T07:07:55;100550.06;;;16.96;61.38
64967;BME280;51710;38.732;-121.358;2023-05-25T07:10:21;100544.88;;;16.94;61.38
64967;BME280;51710;38.732;-121.358;2023-05-25T07:12:48;100549.00;;;16.90;61.28
64967;BME280;51710;38.732;-121.358;2023-05-25T07:15:14;100533.06;;;16.82;61.46
64967;BME280;51710;38.732;-121.358;2023-05-25T07:17:41;100537.16;;;16.71;61.82
64967;BME280;51710;38.732;-121.358;2023-05-25T07:20:07;100539.19;;;16.63;61.90
64967;BME280;51710;38.732;-121.358;2023-05-25T07:22:35;100545.59;;;16.62;62.07
64967;BME280;51710;38.732;-121.358;2023-05-25T07:25:01;100536.88;;;16.60;62.13
64967;BME280;51710;38.732;-121.358;2023-05-25T07:27:29;100535.03;;;16.54;62.26
64967;BME280;51710;38.732;-121.358;2023-05-25T07:29:56;100538.28;;;16.49;62.29
64967;BME280;51710;38.732;-121.358;2023-05-25T07:32:22;100532.03;;;16.42;62.35
64967;BME280;51710;38.732;-121.358;2023-05-25T07:34:48;100532.22;;;16.41;62.45
64967;BME280;51710;38.732;-121.358;2023-05-25T07:37:14;100538.22;;;16.43;62.59
64967;BME280;51710;38.732;-121.358;2023-05-25T07:39:40;100532.22;;;16.41;62.72
64967;BME280;51710;38.732;-121.358;2023-05-25T07:42:07;100543.19;;;16.39;62.42
64967;BME280;51710;38.732;-121.358;2023-05-25T07:44:33;100546.91;;;16.38;62.61
64967;BME280;51710;38.732;-121.358;2023-05-25T07:46:59;100538.22;;;16.36;62.74
64967;BME280;51710;38.732;-121.358;2023-05-25T07:49:26;100546.88;;;16.32;62.67
64967;BME280;51710;38.732;-121.358;2023-05-25T07:51:52;100538.97;;;16.24;62.74
64967;BME280;51710;38.732;-121.358;2023-05-25T07:54:18;100543.06;;;16.20;63.06
64967;BME280;51710;38.732;-121.358;2023-05-25T07:56:44;100547.19;;;16.16;63.14
64967;BME280;51710;38.732;-121.358;2023-05-25T07:59:11;100544.88;;;16.13;62.98
64967;BME280;51710;38.732;-121.358;2023-05-25T08:01:37;100541.75;;;16.09;63.22
64967;BME280;51710;38.732;-121.358;2023-05-25T08:04:03;100539.66;;;16.05;63.39
64967;BME280;51710;38.732;-121.358;2023-05-25T08:06:29;100536.34;;;16.03;63.13
64967;BME280;51710;38.732;-121.358;2023-05-25T08:08:57;100535.09;;;15.99;63.12
64967;BME280;51710;38.732;-121.358;2023-05-25T08:11:23;100539.41;;;15.93;63.27
64967;BME280;51710;38.732;-121.358;2023-05-25T08:13:51;100538.72;;;15.85;63.46
64967;BME280;51710;38.732;-121.358;2023-05-25T08:16:17;100538.44;;;15.79;63.54
64967;BME280;51710;38.732;-121.358;2023-05-25T08:18:43;100538.84;;;15.76;63.69
64967;BME280;51710;38.732;-121.358;2023-05-25T08:21:11;100533.25;;;15.71;64.12
64967;BME280;51710;38.732;-121.358;2023-05-25T08:23:39;100543.53;;;15.68;64.12
64967;BME280;51710;38.732;-121.358;2023-05-25T08:26:10;100534.84;;;15.66;64.09
64967;BME280;51710;38.732;-121.358;2023-05-25T08:28:36;100541.44;;;15.63;64.25
64967;BME280;51710;38.732;-121.358;2023-05-25T08:31:03;100539.41;;;15.65;64.39
64967;BME280;51710;38.732;-121.358;2023-05-25T08:33:30;100539.19;;;15.67;64.67
64967;BME280;51710;38.732;-121.358;2023-05-25T08:35:56;100540.28;;;15.72;64.57
64967;BME280;51710;38.732;-121.358;2023-05-25T08:38:24;100530.78;;;15.76;64.35
64967;BME280;51710;38.732;-121.358;2023-05-25T08:41:02;100532.06;;;15.81;64.48
64967;BME280;51710;38.732;-121.358;2023-05-25T08:43:29;100533.06;;;15.79;64.19
64967;BME280;51710;38.732;-121.358;2023-05-25T08:46:02;100530.78;;;15.76;64.08
64967;BME280;51710;38.732;-121.358;2023-05-25T08:48:30;100533.25;;;15.71;64.29
64967;BME280;51710;38.732;-121.358;2023-05-25T08:51:05;100544.38;;;15.68;64.71
64967;BME280;51710;38.732;-121.358;2023-05-25T08:53:35;100537.31;;;15.67;64.56
64967;BME280;51710;38.732;-121.358;2023-05-25T08:56:09;100535.63;;;15.60;64.68
64967;BME280;51710;38.732;-121.358;2023-05-25T08:58:44;100540.56;;;15.56;64.78
64967;BME280;51710;38.732;-121.358;2023-05-25T09:01:14;100540.13;;;15.53;65.14
64967;BME280;51710;38.732;-121.358;2023-05-25T09:03:44;100540.94;;;15.53;65.22
64967;BME280;51710;38.732;-121.358;2023-05-25T09:06:13;100545.28;;;15.54;65.31
64967;BME280;51710;38.732;-121.358;2023-05-25T09:08:41;100545.09;;;15.56;65.37
64967;BME280;51710;38.732;-121.358;2023-05-25T09:11:09;100545.53;;;15.59;65.58
64967;BME280;51710;38.732;-121.358;2023-05-25T09:13:36;100535.63;;;15.60;65.22
64967;BME280;51710;38.732;-121.358;2023-05-25T09:16:03;100536.06;;;15.63;65.19
64967;BME280;51710;38.732;-121.358;2023-05-25T09:18:30;100539.41;;;15.65;65.37
64967;BME280;51710;38.732;-121.358;2023-05-25T09:20:56;100535.88;;;15.65;65.45
64967;BME280;51710;38.732;-121.358;2023-05-25T09:23:22;100540.41;;;15.64;65.54
64967;BME280;51710;38.732;-121.358;2023-05-25T09:25:50;100554.22;;;15.61;65.43
64967;BME280;51710;38.732;-121.358;2023-05-25T09:28:18;100554.63;;;15.58;65.45
64967;BME280;51710;38.732;-121.358;2023-05-25T09:30:45;100562.41;;;15.53;65.48
64967;BME280;51710;38.732;-121.358;2023-05-25T09:33:12;100560.50;;;15.47;65.58
64967;BME280;51710;38.732;-121.358;2023-05-25T09:35:39;100546.03;;;15.48;66.03
64967;BME280;51710;38.732;-121.358;2023-05-25T09:38:06;100546.69;;;15.50;65.76
64967;BME280;51710;38.732;-121.358;2023-05-25T09:40:33;100551.66;;;15.53;65.88
64967;BME280;51710;38.732;-121.358;2023-05-25T09:43:02;100545.50;;;15.53;65.92
64967;BME280;51710;38.732;-121.358;2023-05-25T09:45:29;100533.28;;;15.50;66.13
64967;BME280;51710;38.732;-121.358;2023-05-25T09:47:56;100539.69;;;15.49;65.98
64967;BME280;51710;38.732;-121.358;2023-05-25T09:50:22;100542.31;;;15.43;66.19
64967;BME280;51710;38.732;-121.358;2023-05-25T09:52:56;100556.72;;;15.42;66.39
64967;BME280;51710;38.732;-121.358;2023-05-25T09:55:29;100546.19;;;15.40;66.19
64967;BME280;51710;38.732;-121.358;2023-05-25T09:57:56;100546.56;;;15.37;66.26
64967;BME280;51710;38.732;-121.358;2023-05-25T10:00:23;100544.19;;;15.28;66.52
64967;BME280;51710;38.732;-121.358;2023-05-25T10:02:50;100538.50;;;15.16;66.48
64967;BME280;51710;38.732;-121.358;2023-05-25T10:05:16;100546.28;;;15.11;66.56
64967;BME280;51710;38.732;-121.358;2023-05-25T10:07:46;100548.06;;;15.04;66.60
64967;BME280;51710;38.732;-121.358;2023-05-25T10:10:13;100541.63;;;14.99;66.93
64967;BME280;51710;38.732;-121.358;2023-05-25T10:12:47;100538.47;;;14.95;67.39
64967;BME280;51710;38.732;-121.358;2023-05-25T10:15:16;100534.06;;;14.88;67.58
64967;BME280;51710;38.732;-121.358;2023-05-25T10:17:52;100532.69;;;14.77;67.52
64967;BME280;51710;38.732;-121.358;2023-05-25T10:20:21;100542.63;;;14.77;67.77
64967;BME280;51710;38.732;-121.358;2023-05-25T10:22:59;100538.50;;;14.81;67.74
64967;BME280;51710;38.732;-121.358;2023-05-25T10:25:30;100539.34;;;14.81;67.67
64967;BME280;51710;38.732;-121.358;2023-05-25T10:28:34;100533.59;;;14.84;67.92
64967;BME280;51710;38.732;-121.358;2023-05-25T10:31:02;100534.44;;;14.85;67.82
64967;BME280;51710;38.732;-121.358;2023-05-25T10:33:29;100528.06;;;14.86;67.77
64967;BME280;51710;38.732;-121.358;2023-05-25T10:35:56;100531.38;;;14.88;67.85
64967;BME280;51710;38.732;-121.358;2023-05-25T10:38:24;100520.19;;;14.84;67.96
64967;BME280;51710;38.732;-121.358;2023-05-25T10:40:53;100533.59;;;14.84;67.81
64967;BME280;51710;38.732;-121.358;2023-05-25T10:43:20;100534.63;;;14.83;68.11
64967;BME280;51710;38.732;-121.358;2023-05-25T10:45:47;100532.78;;;14.84;67.94
64967;BME280;51710;38.732;-121.358;2023-05-25T10:48:14;100526.97;;;14.80;67.87
64967;BME280;51710;38.732;-121.358;2023-05-25T10:50:41;100528.91;;;14.72;68.15
64967;BME280;51710;38.732;-121.358;2023-05-25T10:53:11;100532.56;;;14.64;68.42
64967;BME280;51710;38.732;-121.358;2023-05-25T10:58:20;100529.63;;;14.59;68.79
64967;BME280;51710;38.732;-121.358;2023-05-25T11:01:01;100534.59;;;14.62;68.93
64967;BME280;51710;38.732;-121.358;2023-05-25T11:06:10;100531.53;;;14.65;68.81
64967;BME280;51710;38.732;-121.358;2023-05-25T11:08:57;100527.94;;;14.58;68.73
64967;BME280;51710;38.732;-121.358;2023-05-25T11:19:55;100523.69;;;14.49;69.03
64967;BME280;51710;38.732;-121.358;2023-05-25T11:22:31;100529.44;;;14.46;68.96
64967;BME280;51710;38.732;-121.358;2023-05-25T11:24:59;100523.25;;;14.45;69.43
64967;BME280;51710;38.732;-121.358;2023-05-25T11:27:29;100519.09;;;14.43;69.26
64967;BME280;51710;38.732;-121.358;2023-05-25T11:29:58;100518.91;;;14.44;69.50
64967;BME280;51710;38.732;-121.358;2023-05-25T11:32:25;100520.09;;;14.42;69.44
64967;BME280;51710;38.732;-121.358;2023-05-25T11:34:53;100516.16;;;14.38;69.52
64967;BME280;51710;38.732;-121.358;2023-05-25T11:37:21;100517.16;;;14.37;69.53
64967;BME280;51710;38.732;-121.358;2023-05-25T11:39:53;100516.88;;;14.32;69.81
64967;BME280;51710;38.732;-121.358;2023-05-25T11:42:21;100520.13;;;14.27;69.53
64967;BME280;51710;38.732;-121.358;2023-05-25T11:44:48;100507.75;;;14.26;69.95
64967;BME280;51710;38.732;-121.358;2023-05-25T11:47:14;100508.19;;;14.30;69.83
64967;BME280;51710;38.732;-121.358;2023-05-25T11:49:45;100498.72;;;14.27;70.00
64967;BME280;51710;38.732;-121.358;2023-05-25T11:52:17;100510.56;;;14.25;69.96
64967;BME280;51710;38.732;-121.358;2023-05-25T11:54:43;100504.94;;;14.20;70.06
64967;BME280;51710;38.732;-121.358;2023-05-25T11:57:20;100509.66;;;14.18;70.49
64967;BME280;51710;38.732;-121.358;2023-05-25T11:59:53;100502.66;;;14.17;70.21
64967;BME280;51710;38.732;-121.358;2023-05-25T12:02:21;100506.19;;;14.17;70.51
64967;BME280;51710;38.732;-121.358;2023-05-25T12:04:55;100501.81;;;14.16;70.39
64967;BME280;51710;38.732;-121.358;2023-05-25T12:07:22;100501.34;;;14.13;70.65
64967;BME280;51710;38.732;-121.358;2023-05-25T12:09:48;100504.69;;;14.15;70.90
64967;BME280;51710;38.732;-121.358;2023-05-25T12:12:15;100495.53;;;14.09;70.70
64967;BME280;51710;38.732;-121.358;2023-05-25T12:14:50;100505.13;;;14.04;70.93
64967;BME280;51710;38.732;-121.358;2023-05-25T12:17:18;100498.31;;;14.01;70.99
64967;BME280;51710;38.732;-121.358;2023-05-25T12:19:46;100494.16;;;13.99;71.10
64967;BME280;51710;38.732;-121.358;2023-05-25T12:22:13;100504.50;;;14.02;71.03
64967;BME280;51710;38.732;-121.358;2023-05-25T12:24:40;100506.88;;;13.97;71.20
64967;BME280;51710;38.732;-121.358;2023-05-25T12:27:16;100499.22;;;13.94;71.46
64967;BME280;51710;38.732;-121.358;2023-05-25T12:29:46;100503.88;;;14.00;71.42
64967;BME280;51710;38.732;-121.358;2023-05-25T12:32:13;100507.53;;;13.99;71.35
64967;BME280;51710;38.732;-121.358;2023-05-25T12:34:39;100505.25;;;13.96;71.33
64967;BME280;51710;38.732;-121.358;2023-05-25T12:37:17;100510.22;;;13.99;71.54
64967;BME280;51710;38.732;-121.358;2023-05-25T12:39:44;100510.31;;;14.05;71.64
64967;BME280;51710;38.732;-121.358;2023-05-25T12:42:15;100505.41;;;14.09;71.27
64967;BME280;51710;38.732;-121.358;2023-05-25T12:44:43;100512.44;;;14.10;71.12